createdAt,value
2023-04-21T17:26:25.013Z,27.00
2023-04-21T17:28:51.985Z,26.50
2023-04-21T17:31:18.889Z,26.50
2023-04-21T17:33:45.730Z,26.80
2023-04-21T17:56:18.845Z,25.70
2023-04-21T17:58:45.633Z,25.30
2023-04-21T18:01:12.324Z,24.90
2023-04-21T18:03:42.308Z,24.50
2023-04-21T18:06:13.527Z,24.20
2023-04-21T18:08:40.648Z,23.90
2023-04-21T18:11:07.367Z,23.60
2023-04-21T18:13:34.089Z,23.30
2023-04-21T18:16:00.751Z,23.00
2023-04-21T18:18:27.393Z,22.80
2023-04-21T18:20:54.210Z,22.50
2023-04-21T18:23:21.370Z,22.30
2023-04-21T18:25:47.957Z,22.10
2023-04-21T18:28:14.672Z,21.80
2023-04-21T18:30:42.099Z,21.60
2023-04-21T18:33:10.139Z,21.50
2023-04-21T18:35:37.094Z,21.30
2023-04-21T18:38:04.653Z,21.10
2023-04-21T18:40:33.107Z,21.00
2023-04-21T18:43:00.267Z,20.80
2023-04-21T18:45:27.464Z,20.70
2023-04-21T18:47:54.171Z,20.60
2023-04-21T18:50:20.807Z,20.40
2023-04-21T18:52:47.507Z,20.20
2023-04-21T18:55:15.246Z,20.20
2023-04-21T18:57:42.044Z,20.00
2023-04-21T19:00:09.936Z,19.90
2023-04-21T19:02:37.215Z,19.80
2023-04-21T19:05:04.823Z,19.70
2023-04-21T19:07:31.691Z,19.60
2023-04-21T19:09:58.416Z,19.50
2023-04-21T19:12:26.038Z,19.40
2023-04-21T19:14:53.139Z,19.30
2023-04-21T19:17:20.201Z,19.30
2023-04-21T19:19:46.812Z,19.20
2023-04-21T19:22:13.458Z,19.10
2023-04-21T19:24:40.848Z,19.00
2023-04-21T19:27:07.509Z,19.00
2023-04-21T19:29:36.448Z,19.00
2023-04-21T19:32:03.235Z,18.80
2023-04-21T19:34:29.987Z,18.80
2023-04-21T19:36:56.719Z,18.70
2023-04-21T19:39:23.355Z,18.70
2023-04-21T19:41:49.942Z,18.60
2023-04-21T19:44:16.754Z,18.60
2023-04-21T19:46:43.765Z,18.50
2023-04-21T19:49:14.048Z,18.50
2023-04-21T19:51:41.270Z,18.40
2023-04-21T19:54:12.162Z,18.40
2023-04-21T19:56:40.030Z,18.40
2023-04-21T19:59:07.002Z,18.40
2023-04-21T20:01:34.194Z,18.30
2023-04-21T20:04:01.118Z,18.30
2023-04-21T20:06:28.766Z,18.30
2023-04-21T20:08:56.090Z,18.30
2023-04-21T20:11:23.398Z,18.20
2023-04-21T20:13:50.600Z,18.10
2023-04-21T20:16:20.098Z,18.10
2023-04-21T20:18:46.993Z,18.00
2023-04-21T20:21:13.845Z,18.00
2023-04-21T20:23:41.111Z,18.00
2023-04-21T20:26:07.694Z,17.90
2023-04-21T20:28:34.337Z,17.90
2023-04-21T20:31:01.115Z,17.90
2023-04-21T20:33:28.232Z,17.80
2023-04-21T20:35:55.441Z,17.80
2023-04-21T20:38:23.932Z,17.80
2023-04-21T20:40:52.367Z,17.80
2023-04-21T20:43:19.322Z,17.80
2023-04-21T20:45:47.648Z,17.70
2023-04-21T20:48:14.413Z,17.70
2023-04-21T20:50:42.260Z,17.70
2023-04-21T20:53:10.064Z,17.70
2023-04-21T20:55:36.958Z,17.70
2023-04-21T20:58:06.591Z,17.60
2023-04-21T21:00:34.697Z,17.60
2023-04-21T21:03:02.196Z,17.60
2023-04-21T21:05:30.337Z,17.60
2023-04-21T21:07:57.081Z,17.60
2023-04-21T21:10:23.858Z,17.50
2023-04-21T21:12:50.546Z,17.50
2023-04-21T21:15:17.381Z,17.50
2023-04-21T21:17:44.070Z,17.50
2023-04-21T21:20:11.305Z,17.40
2023-04-21T21:22:38.028Z,17.40
2023-04-21T21:25:05.203Z,17.40
2023-04-21T21:27:31.851Z,17.40
2023-04-21T21:29:58.581Z,17.30
2023-04-21T21:32:25.280Z,17.30
2023-04-21T21:34:52.257Z,17.30
2023-04-21T21:37:19.352Z,17.20
2023-04-21T21:39:46.110Z,17.20
2023-04-21T21:42:12.894Z,17.20
2023-04-21T21:44:39.607Z,17.10
2023-04-21T21:47:06.419Z,17.10
2023-04-21T21:49:33.212Z,17.00
2023-04-21T21:51:59.935Z,16.90
2023-04-21T21:54:26.609Z,16.90
2023-04-21T21:56:53.273Z,16.80
2023-04-21T21:59:21.076Z,16.70
2023-04-21T22:01:48.575Z,16.70
2023-04-21T22:04:15.624Z,16.60
2023-04-21T22:06:42.415Z,16.50
2023-04-21T22:09:09.140Z,16.40
2023-04-21T22:11:37.082Z,16.40
2023-04-21T22:14:18.612Z,16.30
2023-04-21T22:16:48.657Z,16.30
2023-04-21T22:19:17.592Z,16.10
2023-04-21T22:21:44.231Z,16.10
2023-04-21T22:24:10.895Z,16.00
2023-04-21T22:26:37.680Z,16.00
2023-04-21T22:29:04.816Z,15.90
2023-04-21T22:31:31.804Z,15.80
2023-04-21T22:33:58.496Z,15.80
2023-04-21T22:36:25.213Z,15.70
2023-04-21T22:38:52.328Z,15.70
2023-04-21T22:41:18.930Z,15.60
2023-04-21T22:43:45.633Z,15.50
2023-04-21T22:46:12.720Z,15.50
2023-04-21T22:48:39.756Z,15.40
2023-04-21T22:51:07.288Z,15.30
2023-04-21T22:53:34.138Z,15.30
2023-04-21T22:56:00.891Z,15.20
2023-04-21T22:58:27.528Z,15.10
2023-04-21T23:00:54.620Z,15.10
2023-04-21T23:03:22.809Z,15.00
2023-04-21T23:05:49.656Z,15.00
2023-04-21T23:08:16.354Z,14.90
2023-04-21T23:10:43.032Z,14.80
2023-04-21T23:13:09.736Z,14.70
2023-04-21T23:15:36.659Z,14.70
2023-04-21T23:18:03.502Z,14.60
2023-04-21T23:20:31.035Z,14.60
2023-04-21T23:22:58.042Z,14.50
2023-04-21T23:25:24.643Z,14.50
2023-04-21T23:27:51.351Z,14.40
2023-04-21T23:30:18.050Z,14.40
2023-04-21T23:32:45.332Z,14.40
2023-04-21T23:35:12.202Z,14.30
2023-04-21T23:37:38.938Z,14.30
2023-04-21T23:40:09.082Z,14.20
2023-04-21T23:42:36.227Z,14.20
2023-04-21T23:45:03.656Z,14.10
2023-04-21T23:47:30.730Z,14.10
2023-04-21T23:49:57.603Z,14.00
2023-04-21T23:52:24.460Z,13.90
2023-04-21T23:54:51.349Z,13.90
2023-04-21T23:57:18.673Z,13.80
2023-04-21T23:59:45.806Z,13.80
